Northern & Central Napa County

33 Stations

15 Minute Data | America/Los_Angeles
as of 9/4/26 8:30 AM PDT
Station Date Time Temp (°F) RH (%) Dew Pt (°F) Wind Spd (mph) Wind Dir (°) Wind Gust (mph) Latest Rain (In) Daily Rain (In) Daily Max Temp (°F) Daily Min Temp (°F)
Tenma (North Calistoga) 9/4/26 0830 56.7   2.2 - - - - - 0.00 0.00 56.8   3.3 52.0   3.7
Calistoga-Solari 9/4/26 0830 55.2   2.6 92   4 52.9   3.8 2.7   1.7 WSW | 256 4.7   2.7 0.00 0.00 56.7   2.5 48.7   6.7
Calistoga-North 9/4/26 0830 56.4   2.4 92   4 54.2   3.6 - - - 0.00 0.00 56.6   3.9 50.3   6.6
Twomey Calistoga 9/4/26 0830 55.7   4.6 93   2 53.7   3.8 2.4   1.4 NNW | 341 6.9   4.5 0.00 0.00 55.7   4.6 48.9   6.6
Paloma 9/4/26 0830 57.0   2.6 89   5 53.8   4.1 2.4   2.0 ENE | 59 4.7   3.1 0.00 0.00 57.0   3.6 51.2   6.6
Calistoga (Ranch 78) 9/4/26 0830 58.3   0.9 82   10 52.7   4.1 2.8   2.1 NNW | 329 7.0   4.3 0.00 0.00 58.3   1.8 52.2   3.7
Diamond Mtn (Schramsberg) 9/4/26 0830 56.6   0.1 87   13 52.8   3.7 - - - 0.00 0.01 56.9   0.6 51.2   4.1
Diamond Mtn (McEachran) 9/4/26 0830 55.5   2.6 88   8 51.8   5.0 - - - - - 56.5   1.8 51.7   4.6
Deer Park 9/4/26 0830 57.7   1.8 82   9 52.2   4.6 3.3   0.6 N | 349 6.0   2.3 0.00 0.00 57.7   1.8 54.3   2.5
St. Helena-North 9/4/26 0830 61.8   2.7 73   15 53.0   2.6 1.1   0.8 NNW | 347 2.9   0.9 0.00 0.00 62.5   3.2 51.7   4.3
St. Helena (NVV Office) 9/4/26 0830 60.2   0.0 - - 1.1   0.6 NNW | 346 3.9   0.5 0.00 0.00 60.7   0.2 49.0   8.5
Tiara Fria (East St. Helena) 9/4/26 0830 56.5   4.3 95   12 55.2   0.6 1.2   0.2 SE | 127 3.0   0.8 0.00 0.00 57.1   3.9 49.2   7.6
Prisoner Winery 9/4/26 0830 54.1   6.1 97   9 53.4   3.5 0.0   0.5 W | 267 0.4   2.2 0.00 0.00 55.0   5.6 48.2   4.9
Rutherford Hill Estate 9/4/26 0830 55.9   4.5 100   12 55.9   0.9 0.5   1.0 E | 82 3.3   0.4 0.00 0.01 56.6   4.1 51.5   4.9
Rutherford-North (Mee Ln) 9/4/26 0830 54.5   4.6 93   6 52.7   2.8 0.2   1.2 E | 79 1.5   1.3 0.00 0.00 55.6   3.9 44.0   6.9
Rutherford (STS) 9/4/26 0830 59.4   3.7 88   2 55.8   3.0 0.6   1.6 NE | 56 1.8   6.1 0.00 0.01 59.4   3.7 45.6   5.6
Silver Oak OV 9/4/26 0815 53.6   8.6 97   14 52.7   4.2 0.3   5.8 WNW | 288 1.8   9.6 0.00 0.01 57.8   4.8 50.2   0.9
Oakville-NE (Ranch 88) 9/4/26 0830 54.6   8.4 100   23 54.6   1.1 0.0   3.7 N | 0 0.0   10.7 0.00 0.01 55.9   7.6 48.9   1.0
Crossroads Ranch 9/4/26 0830 55.1   8.4 97   16 54.1   3.2 0.2   6.6 WSW | 239 1.1   10.1 0.00 0.00 58.1   5.4 51.4   0.6
Oakville 9/4/26 0830 54.5   8.1 97   16 53.6   2.8 0.7   5.1 NNW | 342 1.8   9.9 0.00 0.00 56.9   6.2 51.3   1.0
To Kalon Remote (TKKE) 9/4/26 0830 58.6   4.7 - - - - - - - 59.9   3.8 47.6   7.3
To Kalon 9/4/26 0830 59.7   2.6 88   3 56.0   1.5 0.4   4.9 NE | 46 1.9   6.7 0.00 0.00 60.6   2.1 48.6   7.9
To Kalon Remote (TKN5) 9/4/26 0830 55.6   7.6 - - - - - - - 57.3   6.2 48.0   8.8
Jump Rock 9/4/26 0830 54.3   2.8 100   1 54.3   2.4 0.2   3.1 ESE | 115 1.6   6.7 0.00 0.00 54.8   2.4 46.0   1.9
State Lane Ranch 9/4/26 0830 55.7   7.6 100   15 55.6   2.9 1.6   3.6 N | 8 3.7   7.0 0.00 0.01 58.7   4.9 52.5   2.1
Yountville (Ranch 67) 9/4/26 0830 56.3   5.5 95   14 55.1   1.2 1.1   4.2 NNE | 29 2.6   7.4 0.00 0.01 57.8   4.1 52.7   1.9
Borreo (Soda Canyon) 9/4/26 0730 54.2   5.1 97   8 53.4   2.7 0.0   0.8 N | 0 0.0   3.0 0.00 0.00 56.6   2.9 50.0   3.6
Wappo Hill Floor 9/4/26 0830 54.6   7.4 100   13 54.6   3.4 0.3   2.3 SSE | 158 1.4   3.7 0.00 0.01 56.5   5.6 52.1   3.6
Wappo Hill 9/4/26 0830 56.7   5.1 95   9 55.4   2.4 2.9   1.0 WNW | 298 5.7   1.6 0.00 0.00 59.2   2.7 54.3   2.0
Stags Leap Dist (Chimney Rock) 9/4/26 0830 56.7   5.9 99   11 56.5   2.7 0.4   1.3 WSW | 250 1.7   2.6 0.00 0.00 58.1   4.6 55.6   0.4
Stags Leap Dist (Silverado Vineyards) 9/4/26 0830 55.3   6.2 96   12 54.2   2.3 0.8   3.9 NNE | 13 2.2   5.5 0.00 0.00 57.7   3.9 53.2   2.1
Yountville-SE (Ranch 85) 9/4/26 0830 56.3   6.0 100   12 56.3   2.4 1.0   1.4 N | 354 2.8   2.5 0.00 0.01 57.8   4.5 54.8   0.2
Yountville-South (Ranch 87) 9/4/26 0830 56.4   5.8 100   12 56.3   2.1 1.4   0.7 NNW | 346 3.8   0.9 0.00 0.00 57.5   4.8 54.1   0.2
Max     61.8 100 56.5 3.3 - 7.0 0.00 0.01 62.5 55.6
Avg     56.3 93 54.2 1.1 - 2.9 0.00 - - -
Min     53.6 73 51.8 0.0 - 0.0 0.00 0.00 54.8 44.0